x

Nanakwa Shoal (46181) Wave Buoy

6:00am - Wed 25th May 2016 All times are PDT. -7 hours from GMT.

  • Sig Wave height 0.3ft
  • Peak Period 2s
  • Wind
    7mph, 11mph gusts
  • Sea Temp 55°f
  • Air Temp 50°f
  • Sea Pressure 1020.3mb
  • Nanakwa Shoal
  • Nanakwa Shoal

More Historic Weather Station data

Upgrade to MSW Pro to gain access to the past 30 days of data for over 8000 Wavebouys and Weather Stations around the globe.

Join Pro

Comparision Forecast

View Surf forecast
   
Wed 05/25 6:00am 0.3ft 2s 7 11 mph 1020.3mb 55f 50f
5:00am 0.3ft 2s 9 13 mph 1019.9mb 55f 51f
4:00am 0.3ft 2s 13 16 mph 1019.5mb 56f 51f
3:00am 0.3ft 2s 13
mph
1019.1mb 56f 51f
2:00am 0.3ft 2s 13 18 mph 1018.6mb 56f 52f
1:00am 0.3ft 2s 16 18 mph 1018.4mb 56f 53f
12:00am 0.3ft 2s 16 18 mph 1018.2mb 56f 54f
Tue 05/24 11:00pm 0.3ft 2s 13 18 mph 1017.9mb 56f 54f
10:00pm 0.7ft 2s 13 18 mph 1017.5mb 56f 55f
9:00pm 0.7ft 2s 16 18 mph 1016.7mb 56f 56f
8:00pm 0.7ft 2s 16 20 mph 1016.2mb 56f 57f
7:00pm 1ft 2s 18 22 mph 1015.7mb 55f 58f
6:00pm 1ft 2s 22 25 mph 1015.3mb 55f 58f
5:00pm 1ft 2s 18 20 mph 1015.2mb 56f 58f
4:00pm 1ft 3s 20 25 mph 1014.9mb 56f 58f
3:00pm 1.3ft 3s 22 27 mph 1014.6mb 56f 57f
2:00pm 1.3ft 3s 22 27 mph 1014.5mb 56f 57f
1:00pm 1.3ft 3s 20 25 mph 1014.6mb 55f 57f
12:00pm 1ft 3s 18 20 mph 1014.7mb 55f 56f
11:00am 1ft 3s 16 18 mph 1014.9mb 55f 56f
10:00am 0.7ft 2s 13 18 mph 1015.1mb 55f 55f
9:00am 0.7ft 3s 13 18 mph 1015mb 55f 54f
8:00am 0.7ft 3s 13 18 mph 1015mb 55f 54f
7:00am 0.3ft 2s 13 18 mph 1014.7mb 55f 54f
6:00am 0.7ft 2s 16 18 mph 1014.5mb 56f 54f
5:00am 0.3ft 2s 16 18 mph 1014.2mb 56f 54f
4:00am 0.7ft 2s 16 18 mph 1014mb 56f 54f
3:00am 0.3ft 2s 16 18 mph 1013.8mb 55f 54f
2:00am 0.3ft 2s 16 20 mph 1013.6mb 55f 55f
1:00am 0.7ft 2s 18 20 mph 1013.5mb 55f 55f
12:00am 1ft 2s 20 22 mph 1013.3mb 55f 55f
Mon 05/23 11:00pm 1ft 2s 20 25 mph 1013mb 56f 56f
10:00pm 1.3ft 2s 22 27 mph 1012.7mb 56f 56f
9:00pm 1.3ft 2s 27 29 mph 1012.1mb 56f 57f
8:00pm 1.6ft 3s 25 27 mph 1011.6mb 56f 58f
7:00pm 1ft 2s 22 27 mph 1011.5mb 57f 59f
6:00pm 0.7ft 2s 20 22 mph 1011.3mb 57f 60f
5:00pm 0.7ft 3s 18 20 mph 1011.5mb 57f 60f
4:00pm 0.7ft 2s 16 18 mph 1011.9mb 57f 60f
3:00pm 0.7ft 2s 13 18 mph 1012.3mb 57f 58f
2:00pm 0.7ft 2s 16 20 mph 1012.3mb 56f 57f
1:00pm 0.7ft 2s 13 18 mph 1012.5mb 56f 57f
12:00pm 0.7ft 2s 13 16 mph 1012.9mb 56f 57f
11:00am 0.7ft 2s 13 18 mph 1013mb 56f 56f
10:00am 0.3ft 2s 13 18 mph 1013.2mb 56f 55f
9:00am 0.7ft 2s 13 18 mph 1013.3mb 56f 55f
8:00am 0.3ft 2s 13 16 mph 1013.3mb 56f 55f
7:00am 0.3ft 2s 11 16 mph 1013.3mb 56f 55f
6:00am 0.3ft 2s 11 13 mph 1012.9mb 56f 55f
5:00am 0.3ft 2s 13 16 mph 1012.5mb 56f 55f
4:00am 0.3ft 3s 13 16 mph 1012.3mb 55f 55f
3:00am 0.3ft 2s 13 16 mph 1012.2mb 55f 55f
2:00am 0.3ft 2s 13 18 mph 1012.1mb 55f 56f
1:00am 0.3ft 2s 9 13 mph 1012.1mb 55f 55f
12:00am 0.7ft 2s 16 20 mph 1012mb 51f 55f
Sun 05/22 11:00pm 0.7ft 2s 18 22 mph 1011.8mb 51f 55f
10:00pm 1ft 2s 18 25 mph 1011.7mb 52f 56f
9:00pm 1ft 2s 18 25 mph 1011.2mb 52f 56f
8:00pm 1.3ft 3s 22 29 mph 1010.5mb 53f 57f
7:00pm 1.3ft 3s 27 31 mph 1009.8mb 54f 58f
6:00pm  -   -  29
mph
1009.3mb - 59f
5:00pm 1.6ft 3s 27 31 mph 1009mb 55f 59f
4:00pm 1.6ft 3s 29 34 mph 1008.5mb 56f 60f
3:00pm 1.6ft 3s 25 31 mph 1008.2mb 56f 60f
2:00pm 1.6ft 3s 22 29 mph 1008.3mb 56f 59f
1:00pm 1ft 3s 20 25 mph 1008.4mb 56f 59f
12:00pm 1ft 2s 16 20 mph 1008.9mb 56f 59f
11:00am 0.7ft 2s 13
mph
1009.1mb 56f 58f
10:00am 0.3ft 2s 11 13 mph 1009.3mb 56f 57f
9:00am 0.3ft 2s 9 11 mph 1009.2mb 56f 56f
8:00am  -  10s 11 13 mph 1008.9mb 55f 55f
7:00am  -  2s 4 7 mph 1008.6mb 55f 55f
6:00am  -  2s 4
mph
1008.2mb 55f 54f
5:00am  -  2s 4
mph
1007.7mb 56f 56f
4:00am  -  3s 4 7 mph 1007.2mb 56f 56f
3:00am  -  2s 7
mph
1007.2mb 56f 56f
2:00am  -  2s 4 7 mph 1006.7mb 56f 55f
1:00am  -  3s 4 7 mph 1006.8mb 56f 57f
12:00am  -  2s 4 7 mph 1006.5mb 56f 58f
Sat 05/21 11:00pm  -  10s 9 11 mph 1006.3mb 55f 62f
10:00pm 0.3ft 2s 4 7 mph 1005.9mb 55f 61f
9:00pm 0.3ft 2s 7 13 mph 1005.6mb 55f 64f
8:00pm 0.3ft 2s 11 13 mph 1005.5mb 57f 63f
7:00pm  -  2s 7 9 mph 1005.4mb 58f 63f
6:00pm  -  2s 9
mph
1005.4mb 58f 63f
5:00pm  -  5s 7
mph
1005.8mb 58f 66f
4:00pm 0.3ft 3s 4 7 mph 1006.3mb 59f 69f
3:00pm  -  2s 2 4 mph 1006.9mb 57f 67f